sensor_id;sensor_type;location;lat;lon;timestamp;P1;durP1;ratioP1;P2;durP2;ratioP2
62479;SDS011;48526;48.846;2.322;2023-04-24T00:01:26;5.50;;;2.50;;
62479;SDS011;48526;48.846;2.322;2023-04-24T00:03:51;4.00;;;4.00;;
62479;SDS011;48526;48.846;2.322;2023-04-24T00:06:17;6.50;;;4.00;;
62479;SDS011;48526;48.846;2.322;2023-04-24T00:08:42;5.25;;;5.25;;
62479;SDS011;48526;48.846;2.322;2023-04-24T00:11:08;6.00;;;5.25;;
62479;SDS011;48526;48.846;2.322;2023-04-24T00:13:34;5.75;;;2.50;;
62479;SDS011;48526;48.846;2.322;2023-04-24T00:15:59;3.00;;;3.00;;
62479;SDS011;48526;48.846;2.322;2023-04-24T00:18:25;3.00;;;1.75;;
62479;SDS011;48526;48.846;2.322;2023-04-24T00:20:50;5.00;;;3.00;;
62479;SDS011;48526;48.846;2.322;2023-04-24T00:23:15;3.75;;;3.50;;
62479;SDS011;48526;48.846;2.322;2023-04-24T00:25:41;3.50;;;3.50;;
62479;SDS011;48526;48.846;2.322;2023-04-24T00:28:06;5.00;;;3.00;;
62479;SDS011;48526;48.846;2.322;2023-04-24T00:30:31;4.50;;;3.00;;
62479;SDS011;48526;48.846;2.322;2023-04-24T00:32:57;6.75;;;5.00;;
62479;SDS011;48526;48.846;2.322;2023-04-24T00:35:23;3.00;;;3.00;;
62479;SDS011;48526;48.846;2.322;2023-04-24T00:37:48;2.25;;;2.25;;
62479;SDS011;48526;48.846;2.322;2023-04-24T00:40:13;5.75;;;3.00;;
62479;SDS011;48526;48.846;2.322;2023-04-24T00:42:39;5.25;;;3.50;;
62479;SDS011;48526;48.846;2.322;2023-04-24T00:45:05;3.00;;;3.00;;
62479;SDS011;48526;48.846;2.322;2023-04-24T00:47:32;3.00;;;3.00;;
62479;SDS011;48526;48.846;2.322;2023-04-24T00:49:58;3.00;;;3.00;;
62479;SDS011;48526;48.846;2.322;2023-04-24T00:52:23;3.00;;;2.50;;
62479;SDS011;48526;48.846;2.322;2023-04-24T00:54:49;3.50;;;2.25;;
62479;SDS011;48526;48.846;2.322;2023-04-24T00:57:15;2.00;;;2.00;;
62479;SDS011;48526;48.846;2.322;2023-04-24T00:59:41;2.00;;;2.00;;
62479;SDS011;48526;48.846;2.322;2023-04-24T01:02:07;5.00;;;2.75;;
62479;SDS011;48526;48.846;2.322;2023-04-24T01:04:34;1.75;;;1.75;;
62479;SDS011;48526;48.846;2.322;2023-04-24T01:06:59;4.00;;;4.00;;
62479;SDS011;48526;48.846;2.322;2023-04-24T01:09:27;4.50;;;2.50;;
62479;SDS011;48526;48.846;2.322;2023-04-24T01:11:53;5.00;;;2.00;;
62479;SDS011;48526;48.846;2.322;2023-04-24T01:14:19;6.75;;;5.00;;
62479;SDS011;48526;48.846;2.322;2023-04-24T01:16:45;4.25;;;2.00;;
62479;SDS011;48526;48.846;2.322;2023-04-24T01:19:11;3.00;;;2.00;;
62479;SDS011;48526;48.846;2.322;2023-04-24T01:21:37;6.50;;;3.00;;
62479;SDS011;48526;48.846;2.322;2023-04-24T01:24:04;5.00;;;2.75;;
62479;SDS011;48526;48.846;2.322;2023-04-24T01:26:30;5.00;;;0.00;;
62479;SDS011;48526;48.846;2.322;2023-04-24T01:28:56;6.00;;;2.00;;
62479;SDS011;48526;48.846;2.322;2023-04-24T01:31:22;3.00;;;3.00;;
62479;SDS011;48526;48.846;2.322;2023-04-24T01:33:47;2.00;;;2.00;;
62479;SDS011;48526;48.846;2.322;2023-04-24T01:36:13;4.50;;;4.50;;
62479;SDS011;48526;48.846;2.322;2023-04-24T01:38:38;4.50;;;4.50;;
62479;SDS011;48526;48.846;2.322;2023-04-24T01:41:04;5.50;;;3.00;;
62479;SDS011;48526;48.846;2.322;2023-04-24T01:43:29;6.25;;;3.50;;
62479;SDS011;48526;48.846;2.322;2023-04-24T01:45:55;7.00;;;5.00;;
62479;SDS011;48526;48.846;2.322;2023-04-24T01:48:20;4.00;;;2.25;;
62479;SDS011;48526;48.846;2.322;2023-04-24T01:50:45;5.50;;;5.00;;
62479;SDS011;48526;48.846;2.322;2023-04-24T01:53:11;2.00;;;2.00;;
62479;SDS011;48526;48.846;2.322;2023-04-24T01:55:36;2.75;;;2.75;;
62479;SDS011;48526;48.846;2.322;2023-04-24T01:58:02;5.00;;;3.50;;
62479;SDS011;48526;48.846;2.322;2023-04-24T02:00:27;6.00;;;4.25;;
62479;SDS011;48526;48.846;2.322;2023-04-24T02:02:53;4.25;;;4.25;;
62479;SDS011;48526;48.846;2.322;2023-04-24T02:05:18;2.00;;;2.00;;
62479;SDS011;48526;48.846;2.322;2023-04-24T02:07:44;7.50;;;4.50;;
62479;SDS011;48526;48.846;2.322;2023-04-24T02:10:10;1.75;;;1.00;;
62479;SDS011;48526;48.846;2.322;2023-04-24T02:12:35;4.00;;;3.00;;
62479;SDS011;48526;48.846;2.322;2023-04-24T02:15:01;7.50;;;4.25;;
62479;SDS011;48526;48.846;2.322;2023-04-24T02:17:26;4.00;;;3.50;;
62479;SDS011;48526;48.846;2.322;2023-04-24T02:19:52;6.25;;;6.25;;
62479;SDS011;48526;48.846;2.322;2023-04-24T02:22:17;1.75;;;1.75;;
62479;SDS011;48526;48.846;2.322;2023-04-24T02:24:42;2.00;;;2.00;;
62479;SDS011;48526;48.846;2.322;2023-04-24T02:27:08;2.00;;;2.00;;
62479;SDS011;48526;48.846;2.322;2023-04-24T02:29:33;3.00;;;3.00;;
62479;SDS011;48526;48.846;2.322;2023-04-24T02:31:58;0.25;;;0.25;;
62479;SDS011;48526;48.846;2.322;2023-04-24T02:34:24;4.50;;;4.50;;
62479;SDS011;48526;48.846;2.322;2023-04-24T02:36:49;6.00;;;3.50;;
62479;SDS011;48526;48.846;2.322;2023-04-24T02:39:15;3.75;;;2.00;;
62479;SDS011;48526;48.846;2.322;2023-04-24T02:41:43;2.00;;;2.00;;
62479;SDS011;48526;48.846;2.322;2023-04-24T02:44:09;7.75;;;4.50;;
62479;SDS011;48526;48.846;2.322;2023-04-24T02:46:34;5.00;;;2.00;;
62479;SDS011;48526;48.846;2.322;2023-04-24T02:49:00;1.75;;;1.00;;
62479;SDS011;48526;48.846;2.322;2023-04-24T02:51:25;2.50;;;2.25;;
62479;SDS011;48526;48.846;2.322;2023-04-24T02:53:51;4.00;;;2.25;;
62479;SDS011;48526;48.846;2.322;2023-04-24T02:56:17;5.50;;;2.50;;
62479;SDS011;48526;48.846;2.322;2023-04-24T02:58:42;3.00;;;2.00;;
62479;SDS011;48526;48.846;2.322;2023-04-24T03:01:08;3.00;;;2.00;;
62479;SDS011;48526;48.846;2.322;2023-04-24T03:03:35;10.00;;;4.50;;
62479;SDS011;48526;48.846;2.322;2023-04-24T03:06:00;3.25;;;2.00;;
62479;SDS011;48526;48.846;2.322;2023-04-24T03:08:26;6.75;;;3.00;;
62479;SDS011;48526;48.846;2.322;2023-04-24T03:10:51;1.50;;;1.50;;
62479;SDS011;48526;48.846;2.322;2023-04-24T03:13:17;4.25;;;2.25;;
62479;SDS011;48526;48.846;2.322;2023-04-24T03:15:42;5.00;;;3.00;;
62479;SDS011;48526;48.846;2.322;2023-04-24T03:18:08;5.25;;;3.00;;
62479;SDS011;48526;48.846;2.322;2023-04-24T03:20:33;2.00;;;2.00;;
62479;SDS011;48526;48.846;2.322;2023-04-24T03:22:58;5.00;;;3.00;;
62479;SDS011;48526;48.846;2.322;2023-04-24T03:25:24;2.00;;;2.00;;
62479;SDS011;48526;48.846;2.322;2023-04-24T03:27:49;2.33;;;1.00;;
62479;SDS011;48526;48.846;2.322;2023-04-24T03:30:14;5.75;;;5.00;;
62479;SDS011;48526;48.846;2.322;2023-04-24T03:32:40;5.00;;;3.00;;
62479;SDS011;48526;48.846;2.322;2023-04-24T03:35:06;2.50;;;1.75;;
62479;SDS011;48526;48.846;2.322;2023-04-24T03:37:33;2.50;;;2.50;;
62479;SDS011;48526;48.846;2.322;2023-04-24T03:40:00;1.50;;;1.50;;
62479;SDS011;48526;48.846;2.322;2023-04-24T03:42:26;1.50;;;0.00;;
62479;SDS011;48526;48.846;2.322;2023-04-24T03:44:51;3.00;;;2.75;;
62479;SDS011;48526;48.846;2.322;2023-04-24T03:47:17;2.50;;;2.50;;
62479;SDS011;48526;48.846;2.322;2023-04-24T03:49:42;5.00;;;5.00;;
62479;SDS011;48526;48.846;2.322;2023-04-24T03:52:07;3.00;;;3.00;;
62479;SDS011;48526;48.846;2.322;2023-04-24T03:54:33;2.25;;;2.25;;
62479;SDS011;48526;48.846;2.322;2023-04-24T03:56:58;3.00;;;2.00;;
62479;SDS011;48526;48.846;2.322;2023-04-24T03:59:23;4.50;;;2.75;;
62479;SDS011;48526;48.846;2.322;2023-04-24T04:01:49;4.50;;;2.75;;
62479;SDS011;48526;48.846;2.322;2023-04-24T04:04:15;2.75;;;2.25;;
62479;SDS011;48526;48.846;2.322;2023-04-24T04:06:40;2.25;;;1.00;;
62479;SDS011;48526;48.846;2.322;2023-04-24T04:09:05;4.50;;;2.00;;
62479;SDS011;48526;48.846;2.322;2023-04-24T04:11:32;5.50;;;3.50;;
62479;SDS011;48526;48.846;2.322;2023-04-24T04:13:57;4.00;;;4.00;;
62479;SDS011;48526;48.846;2.322;2023-04-24T04:16:22;3.50;;;2.50;;
62479;SDS011;48526;48.846;2.322;2023-04-24T04:18:48;5.00;;;3.00;;
62479;SDS011;48526;48.846;2.322;2023-04-24T04:21:13;2.25;;;2.25;;
62479;SDS011;48526;48.846;2.322;2023-04-24T04:23:39;2.50;;;2.50;;
62479;SDS011;48526;48.846;2.322;2023-04-24T04:26:05;7.00;;;3.00;;
62479;SDS011;48526;48.846;2.322;2023-04-24T04:28:30;5.50;;;5.50;;
62479;SDS011;48526;48.846;2.322;2023-04-24T04:30:56;6.25;;;2.25;;
62479;SDS011;48526;48.846;2.322;2023-04-24T04:33:22;5.75;;;3.00;;
62479;SDS011;48526;48.846;2.322;2023-04-24T04:35:48;5.00;;;3.00;;
62479;SDS011;48526;48.846;2.322;2023-04-24T04:38:14;5.50;;;3.00;;
62479;SDS011;48526;48.846;2.322;2023-04-24T04:40:40;3.00;;;2.25;;
62479;SDS011;48526;48.846;2.322;2023-04-24T04:43:06;6.00;;;4.50;;
62479;SDS011;48526;48.846;2.322;2023-04-24T04:45:31;6.00;;;2.75;;
62479;SDS011;48526;48.846;2.322;2023-04-24T04:47:58;4.50;;;4.50;;
62479;SDS011;48526;48.846;2.322;2023-04-24T04:50:25;5.00;;;5.00;;
62479;SDS011;48526;48.846;2.322;2023-04-24T04:52:51;2.25;;;2.00;;
62479;SDS011;48526;48.846;2.322;2023-04-24T04:55:17;6.00;;;3.00;;
62479;SDS011;48526;48.846;2.322;2023-04-24T04:57:43;5.50;;;4.00;;
62479;SDS011;48526;48.846;2.322;2023-04-24T05:00:10;6.50;;;5.25;;
62479;SDS011;48526;48.846;2.322;2023-04-24T05:02:36;6.00;;;6.00;;
62479;SDS011;48526;48.846;2.322;2023-04-24T05:05:01;6.00;;;4.50;;
62479;SDS011;48526;48.846;2.322;2023-04-24T05:07:26;6.25;;;5.25;;
62479;SDS011;48526;48.846;2.322;2023-04-24T05:09:52;7.25;;;5.50;;
62479;SDS011;48526;48.846;2.322;2023-04-24T05:12:17;8.25;;;2.50;;
62479;SDS011;48526;48.846;2.322;2023-04-24T05:14:42;5.50;;;4.50;;
62479;SDS011;48526;48.846;2.322;2023-04-24T05:17:08;4.50;;;2.25;;
62479;SDS011;48526;48.846;2.322;2023-04-24T05:19:34;8.75;;;5.75;;
62479;SDS011;48526;48.846;2.322;2023-04-24T05:22:02;4.50;;;4.50;;
62479;SDS011;48526;48.846;2.322;2023-04-24T05:24:30;9.00;;;5.25;;
62479;SDS011;48526;48.846;2.322;2023-04-24T05:26:55;9.00;;;6.00;;
62479;SDS011;48526;48.846;2.322;2023-04-24T05:29:22;9.00;;;7.50;;
62479;SDS011;48526;48.846;2.322;2023-04-24T05:31:48;2.00;;;2.00;;
62479;SDS011;48526;48.846;2.322;2023-04-24T05:34:13;7.00;;;5.00;;
62479;SDS011;48526;48.846;2.322;2023-04-24T05:36:41;10.25;;;5.50;;
62479;SDS011;48526;48.846;2.322;2023-04-24T05:39:06;3.00;;;3.00;;
62479;SDS011;48526;48.846;2.322;2023-04-24T05:41:31;8.75;;;5.50;;
62479;SDS011;48526;48.846;2.322;2023-04-24T05:43:58;7.00;;;3.00;;
62479;SDS011;48526;48.846;2.322;2023-04-24T05:46:23;7.00;;;6.00;;
62479;SDS011;48526;48.846;2.322;2023-04-24T05:48:49;6.75;;;6.00;;
62479;SDS011;48526;48.846;2.322;2023-04-24T05:51:14;9.00;;;7.00;;
62479;SDS011;48526;48.846;2.322;2023-04-24T05:53:39;5.50;;;5.00;;
62479;SDS011;48526;48.846;2.322;2023-04-24T05:56:05;10.25;;;7.50;;
62479;SDS011;48526;48.846;2.322;2023-04-24T05:58:30;8.75;;;6.00;;
62479;SDS011;48526;48.846;2.322;2023-04-24T06:00:55;9.50;;;7.00;;
62479;SDS011;48526;48.846;2.322;2023-04-24T06:03:22;9.25;;;9.25;;
62479;SDS011;48526;48.846;2.322;2023-04-24T06:05:49;8.50;;;6.50;;
62479;SDS011;48526;48.846;2.322;2023-04-24T06:08:17;6.75;;;6.25;;
62479;SDS011;48526;48.846;2.322;2023-04-24T06:10:42;7.25;;;6.75;;
62479;SDS011;48526;48.846;2.322;2023-04-24T06:13:08;10.00;;;8.00;;
62479;SDS011;48526;48.846;2.322;2023-04-24T06:15:33;6.75;;;6.00;;
62479;SDS011;48526;48.846;2.322;2023-04-24T06:17:58;11.25;;;9.25;;
62479;SDS011;48526;48.846;2.322;2023-04-24T06:20:24;14.75;;;11.25;;
62479;SDS011;48526;48.846;2.322;2023-04-24T06:22:50;9.75;;;8.75;;
62479;SDS011;48526;48.846;2.322;2023-04-24T06:25:15;7.25;;;7.25;;
62479;SDS011;48526;48.846;2.322;2023-04-24T06:27:40;14.00;;;11.25;;
62479;SDS011;48526;48.846;2.322;2023-04-24T06:30:06;10.25;;;7.25;;
62479;SDS011;48526;48.846;2.322;2023-04-24T06:32:32;12.50;;;9.00;;
62479;SDS011;48526;48.846;2.322;2023-04-24T06:34:57;11.00;;;9.75;;
62479;SDS011;48526;48.846;2.322;2023-04-24T06:37:23;14.75;;;10.00;;
62479;SDS011;48526;48.846;2.322;2023-04-24T06:39:48;9.25;;;7.00;;
62479;SDS011;48526;48.846;2.322;2023-04-24T06:42:14;11.25;;;11.25;;
62479;SDS011;48526;48.846;2.322;2023-04-24T06:44:39;14.75;;;10.75;;
62479;SDS011;48526;48.846;2.322;2023-04-24T06:47:08;13.00;;;9.50;;
62479;SDS011;48526;48.846;2.322;2023-04-24T06:49:34;17.75;;;11.25;;
62479;SDS011;48526;48.846;2.322;2023-04-24T06:52:00;13.75;;;10.50;;
62479;SDS011;48526;48.846;2.322;2023-04-24T06:54:27;14.00;;;12.00;;
62479;SDS011;48526;48.846;2.322;2023-04-24T06:56:55;10.50;;;9.00;;
62479;SDS011;48526;48.846;2.322;2023-04-24T06:59:22;17.25;;;12.75;;
62479;SDS011;48526;48.846;2.322;2023-04-24T07:01:50;9.75;;;8.25;;
62479;SDS011;48526;48.846;2.322;2023-04-24T07:04:23;12.50;;;11.00;;
62479;SDS011;48526;48.846;2.322;2023-04-24T07:06:50;10.00;;;9.50;;
62479;SDS011;48526;48.846;2.322;2023-04-24T07:09:16;11.75;;;10.50;;
62479;SDS011;48526;48.846;2.322;2023-04-24T07:11:43;15.75;;;11.75;;
62479;SDS011;48526;48.846;2.322;2023-04-24T07:14:09;12.00;;;10.25;;
62479;SDS011;48526;48.846;2.322;2023-04-24T07:16:35;11.25;;;10.75;;
62479;SDS011;48526;48.846;2.322;2023-04-24T07:19:00;17.00;;;14.75;;
62479;SDS011;48526;48.846;2.322;2023-04-24T07:21:26;15.25;;;11.75;;
62479;SDS011;48526;48.846;2.322;2023-04-24T07:23:52;12.00;;;10.00;;
62479;SDS011;48526;48.846;2.322;2023-04-24T07:26:17;14.75;;;14.75;;
62479;SDS011;48526;48.846;2.322;2023-04-24T07:28:43;14.50;;;11.00;;
62479;SDS011;48526;48.846;2.322;2023-04-24T07:31:08;16.75;;;13.00;;
62479;SDS011;48526;48.846;2.322;2023-04-24T07:33:34;15.00;;;13.00;;
62479;SDS011;48526;48.846;2.322;2023-04-24T07:36:01;12.25;;;12.00;;
62479;SDS011;48526;48.846;2.322;2023-04-24T07:38:26;19.50;;;14.25;;
62479;SDS011;48526;48.846;2.322;2023-04-24T07:40:51;16.00;;;15.75;;
62479;SDS011;48526;48.846;2.322;2023-04-24T07:43:17;14.75;;;12.00;;
62479;SDS011;48526;48.846;2.322;2023-04-24T07:45:45;13.50;;;9.00;;
62479;SDS011;48526;48.846;2.322;2023-04-24T07:48:10;17.00;;;14.75;;
62479;SDS011;48526;48.846;2.322;2023-04-24T07:50:35;13.00;;;11.50;;
62479;SDS011;48526;48.846;2.322;2023-04-24T07:53:01;16.25;;;12.00;;
62479;SDS011;48526;48.846;2.322;2023-04-24T07:55:27;14.25;;;12.75;;
62479;SDS011;48526;48.846;2.322;2023-04-24T07:57:52;16.50;;;12.00;;
62479;SDS011;48526;48.846;2.322;2023-04-24T08:00:17;8.25;;;8.00;;
62479;SDS011;48526;48.846;2.322;2023-04-24T08:02:43;13.75;;;12.50;;
62479;SDS011;48526;48.846;2.322;2023-04-24T08:05:10;17.75;;;14.75;;
62479;SDS011;48526;48.846;2.322;2023-04-24T08:07:35;7.00;;;4.50;;
62479;SDS011;48526;48.846;2.322;2023-04-24T08:10:01;16.25;;;11.25;;
62479;SDS011;48526;48.846;2.322;2023-04-24T08:12:28;14.75;;;11.75;;
62479;SDS011;48526;48.846;2.322;2023-04-24T08:14:54;10.75;;;9.50;;
62479;SDS011;48526;48.846;2.322;2023-04-24T08:17:21;14.25;;;12.25;;
62479;SDS011;48526;48.846;2.322;2023-04-24T08:19:46;19.75;;;16.00;;
62479;SDS011;48526;48.846;2.322;2023-04-24T08:22:16;17.00;;;16.00;;
62479;SDS011;48526;48.846;2.322;2023-04-24T08:24:41;16.75;;;11.50;;
62479;SDS011;48526;48.846;2.322;2023-04-24T08:27:07;17.00;;;11.00;;
62479;SDS011;48526;48.846;2.322;2023-04-24T08:29:33;15.25;;;15.25;;
62479;SDS011;48526;48.846;2.322;2023-04-24T08:31:58;15.00;;;12.75;;
62479;SDS011;48526;48.846;2.322;2023-04-24T08:34:24;16.00;;;16.00;;
62479;SDS011;48526;48.846;2.322;2023-04-24T08:36:49;19.25;;;15.00;;
62479;SDS011;48526;48.846;2.322;2023-04-24T08:39:15;17.50;;;17.00;;
62479;SDS011;48526;48.846;2.322;2023-04-24T08:41:42;20.50;;;14.00;;
62479;SDS011;48526;48.846;2.322;2023-04-24T08:44:08;17.75;;;16.50;;
62479;SDS011;48526;48.846;2.322;2023-04-24T08:46:34;19.25;;;17.50;;
62479;SDS011;48526;48.846;2.322;2023-04-24T08:49:00;19.75;;;14.25;;
62479;SDS011;48526;48.846;2.322;2023-04-24T08:51:27;19.25;;;16.00;;
62479;SDS011;48526;48.846;2.322;2023-04-24T08:53:53;19.25;;;17.75;;
62479;SDS011;48526;48.846;2.322;2023-04-24T08:56:20;13.50;;;12.75;;
62479;SDS011;48526;48.846;2.322;2023-04-24T08:58:48;24.50;;;19.50;;
62479;SDS011;48526;48.846;2.322;2023-04-24T09:01:13;18.25;;;17.00;;
62479;SDS011;48526;48.846;2.322;2023-04-24T09:03:39;19.00;;;14.50;;
62479;SDS011;48526;48.846;2.322;2023-04-24T09:06:05;11.75;;;10.00;;
62479;SDS011;48526;48.846;2.322;2023-04-24T09:08:31;18.00;;;13.25;;
62479;SDS011;48526;48.846;2.322;2023-04-24T09:10:57;10.50;;;9.00;;
62479;SDS011;48526;48.846;2.322;2023-04-24T09:13:23;24.75;;;18.25;;
62479;SDS011;48526;48.846;2.322;2023-04-24T09:15:49;13.50;;;11.00;;
62479;SDS011;48526;48.846;2.322;2023-04-24T09:18:15;19.25;;;16.00;;
62479;SDS011;48526;48.846;2.322;2023-04-24T09:20:59;18.50;;;14.75;;
62479;SDS011;48526;48.846;2.322;2023-04-24T09:23:28;20.00;;;14.75;;
62479;SDS011;48526;48.846;2.322;2023-04-24T09:25:56;13.75;;;13.75;;
62479;SDS011;48526;48.846;2.322;2023-04-24T09:28:35;15.25;;;15.00;;
62479;SDS011;48526;48.846;2.322;2023-04-24T09:31:23;17.75;;;14.00;;
62479;SDS011;48526;48.846;2.322;2023-04-24T09:33:59;14.00;;;13.25;;
62479;SDS011;48526;48.846;2.322;2023-04-24T09:36:30;20.00;;;15.00;;
62479;SDS011;48526;48.846;2.322;2023-04-24T09:39:03;20.25;;;15.75;;
62479;SDS011;48526;48.846;2.322;2023-04-24T09:44:19;18.25;;;14.25;;
62479;SDS011;48526;48.846;2.322;2023-04-24T09:46:49;21.00;;;17.00;;
62479;SDS011;48526;48.846;2.322;2023-04-24T09:49:16;20.25;;;18.25;;
62479;SDS011;48526;48.846;2.322;2023-04-24T09:51:49;12.50;;;12.50;;
62479;SDS011;48526;48.846;2.322;2023-04-24T09:54:15;20.50;;;16.75;;
62479;SDS011;48526;48.846;2.322;2023-04-24T09:56:42;22.25;;;19.00;;
62479;SDS011;48526;48.846;2.322;2023-04-24T09:59:09;14.50;;;13.50;;
62479;SDS011;48526;48.846;2.322;2023-04-24T10:01:34;13.75;;;13.75;;
62479;SDS011;48526;48.846;2.322;2023-04-24T10:04:01;22.00;;;18.50;;
62479;SDS011;48526;48.846;2.322;2023-04-24T10:06:34;20.00;;;17.25;;
62479;SDS011;48526;48.846;2.322;2023-04-24T10:09:00;17.50;;;16.00;;
62479;SDS011;48526;48.846;2.322;2023-04-24T10:11:28;21.75;;;19.00;;
62479;SDS011;48526;48.846;2.322;2023-04-24T10:13:55;20.00;;;17.75;;
62479;SDS011;48526;48.846;2.322;2023-04-24T10:16:24;19.00;;;13.75;;
62479;SDS011;48526;48.846;2.322;2023-04-24T10:18:52;17.00;;;14.25;;
62479;SDS011;48526;48.846;2.322;2023-04-24T10:21:17;15.00;;;11.50;;
62479;SDS011;48526;48.846;2.322;2023-04-24T10:23:42;17.00;;;15.00;;
62479;SDS011;48526;48.846;2.322;2023-04-24T10:26:12;12.25;;;11.50;;
62479;SDS011;48526;48.846;2.322;2023-04-24T10:28:42;17.25;;;14.00;;
62479;SDS011;48526;48.846;2.322;2023-04-24T10:31:10;17.75;;;15.00;;
62479;SDS011;48526;48.846;2.322;2023-04-24T10:33:36;15.75;;;15.75;;
62479;SDS011;48526;48.846;2.322;2023-04-24T10:36:03;19.50;;;14.25;;
62479;SDS011;48526;48.846;2.322;2023-04-24T10:38:29;22.50;;;17.50;;
62479;SDS011;48526;48.846;2.322;2023-04-24T10:41:09;20.00;;;18.00;;
62479;SDS011;48526;48.846;2.322;2023-04-24T10:43:40;16.50;;;12.75;;
62479;SDS011;48526;48.846;2.322;2023-04-24T10:46:07;9.75;;;9.00;;
62479;SDS011;48526;48.846;2.322;2023-04-24T10:48:35;11.75;;;11.75;;
62479;SDS011;48526;48.846;2.322;2023-04-24T10:51:02;19.25;;;18.50;;
62479;SDS011;48526;48.846;2.322;2023-04-24T10:53:29;21.25;;;15.50;;
62479;SDS011;48526;48.846;2.322;2023-04-24T10:56:02;15.00;;;14.25;;
62479;SDS011;48526;48.846;2.322;2023-04-24T10:58:35;17.25;;;13.00;;
62479;SDS011;48526;48.846;2.322;2023-04-24T11:01:23;16.75;;;15.50;;
62479;SDS011;48526;48.846;2.322;2023-04-24T11:04:01;16.25;;;12.50;;
62479;SDS011;48526;48.846;2.322;2023-04-24T11:06:28;15.75;;;12.00;;
62479;SDS011;48526;48.846;2.322;2023-04-24T11:08:59;14.75;;;10.50;;
62479;SDS011;48526;48.846;2.322;2023-04-24T11:11:28;9.25;;;9.25;;
62479;SDS011;48526;48.846;2.322;2023-04-24T11:19:05;16.75;;;12.50;;
62479;SDS011;48526;48.846;2.322;2023-04-24T11:21:42;19.00;;;16.25;;
62479;SDS011;48526;48.846;2.322;2023-04-24T11:27:15;12.00;;;12.00;;
62479;SDS011;48526;48.846;2.322;2023-04-24T11:29:42;13.50;;;11.25;;
62479;SDS011;48526;48.846;2.322;2023-04-24T11:34:54;12.50;;;11.25;;
62479;SDS011;48526;48.846;2.322;2023-04-24T11:40:05;13.50;;;11.00;;
62479;SDS011;48526;48.846;2.322;2023-04-24T11:42:38;10.50;;;9.50;;
62479;SDS011;48526;48.846;2.322;2023-04-24T11:45:09;12.25;;;10.00;;
62479;SDS011;48526;48.846;2.322;2023-04-24T11:47:36;11.75;;;11.75;;
62479;SDS011;48526;48.846;2.322;2023-04-24T11:50:02;13.00;;;12.00;;
62479;SDS011;48526;48.846;2.322;2023-04-24T11:52:33;13.75;;;13.25;;
62479;SDS011;48526;48.846;2.322;2023-04-24T11:54:59;14.00;;;12.00;;
62479;SDS011;48526;48.846;2.322;2023-04-24T11:57:24;11.50;;;11.25;;
62479;SDS011;48526;48.846;2.322;2023-04-24T11:59:52;7.25;;;6.75;;
62479;SDS011;48526;48.846;2.322;2023-04-24T12:02:22;10.00;;;9.75;;
62479;SDS011;48526;48.846;2.322;2023-04-24T12:04:48;10.25;;;10.00;;
62479;SDS011;48526;48.846;2.322;2023-04-24T12:07:13;10.00;;;8.25;;
62479;SDS011;48526;48.846;2.322;2023-04-24T12:09:46;8.00;;;6.00;;
62479;SDS011;48526;48.846;2.322;2023-04-24T12:12:12;10.25;;;5.75;;
62479;SDS011;48526;48.846;2.322;2023-04-24T12:17:34;10.50;;;9.75;;
62479;SDS011;48526;48.846;2.322;2023-04-24T12:20:06;5.50;;;5.50;;
62479;SDS011;48526;48.846;2.322;2023-04-24T12:25:11;8.50;;;7.75;;
62479;SDS011;48526;48.846;2.322;2023-04-24T12:27:37;11.00;;;10.00;;
62479;SDS011;48526;48.846;2.322;2023-04-24T12:30:04;7.00;;;7.00;;
62479;SDS011;48526;48.846;2.322;2023-04-24T12:32:30;7.00;;;6.00;;
62479;SDS011;48526;48.846;2.322;2023-04-24T12:34:56;5.00;;;5.00;;
62479;SDS011;48526;48.846;2.322;2023-04-24T12:37:25;7.75;;;6.75;;
62479;SDS011;48526;48.846;2.322;2023-04-24T12:42:29;12.25;;;6.50;;
62479;SDS011;48526;48.846;2.322;2023-04-24T12:44:59;5.50;;;5.50;;
62479;SDS011;48526;48.846;2.322;2023-04-24T12:47:28;5.00;;;4.00;;
62479;SDS011;48526;48.846;2.322;2023-04-24T12:49:54;6.50;;;5.50;;
62479;SDS011;48526;48.846;2.322;2023-04-24T12:52:24;6.50;;;4.75;;
62479;SDS011;48526;48.846;2.322;2023-04-24T12:54:52;7.75;;;5.75;;
62479;SDS011;48526;48.846;2.322;2023-04-24T12:57:18;4.00;;;3.75;;
62479;SDS011;48526;48.846;2.322;2023-04-24T12:59:43;10.25;;;9.00;;
62479;SDS011;48526;48.846;2.322;2023-04-24T13:02:09;10.75;;;10.25;;
62479;SDS011;48526;48.846;2.322;2023-04-24T13:04:35;6.00;;;6.00;;
62479;SDS011;48526;48.846;2.322;2023-04-24T13:07:00;7.25;;;6.00;;
62479;SDS011;48526;48.846;2.322;2023-04-24T13:09:26;10.25;;;6.50;;
62479;SDS011;48526;48.846;2.322;2023-04-24T13:11:51;7.75;;;6.00;;
62479;SDS011;48526;48.846;2.322;2023-04-24T13:14:17;6.25;;;5.00;;
62479;SDS011;48526;48.846;2.322;2023-04-24T13:16:42;8.50;;;6.00;;
62479;SDS011;48526;48.846;2.322;2023-04-24T13:19:07;5.00;;;5.00;;
62479;SDS011;48526;48.846;2.322;2023-04-24T13:21:33;5.00;;;5.00;;
62479;SDS011;48526;48.846;2.322;2023-04-24T13:23:58;5.00;;;4.00;;
62479;SDS011;48526;48.846;2.322;2023-04-24T13:26:23;4.00;;;4.00;;
62479;SDS011;48526;48.846;2.322;2023-04-24T13:28:49;5.75;;;3.75;;
62479;SDS011;48526;48.846;2.322;2023-04-24T13:31:14;5.50;;;5.50;;
62479;SDS011;48526;48.846;2.322;2023-04-24T13:33:40;3.75;;;3.75;;
62479;SDS011;48526;48.846;2.322;2023-04-24T13:36:06;5.00;;;4.00;;
62479;SDS011;48526;48.846;2.322;2023-04-24T13:38:31;9.75;;;6.25;;
62479;SDS011;48526;48.846;2.322;2023-04-24T13:40:57;4.50;;;3.50;;
62479;SDS011;48526;48.846;2.322;2023-04-24T13:43:22;4.75;;;4.25;;
62479;SDS011;48526;48.846;2.322;2023-04-24T13:45:47;6.25;;;5.25;;
62479;SDS011;48526;48.846;2.322;2023-04-24T13:48:13;5.50;;;4.25;;
62479;SDS011;48526;48.846;2.322;2023-04-24T13:50:40;4.25;;;4.25;;
62479;SDS011;48526;48.846;2.322;2023-04-24T13:53:06;4.25;;;4.00;;
62479;SDS011;48526;48.846;2.322;2023-04-24T13:55:32;5.25;;;4.50;;
62479;SDS011;48526;48.846;2.322;2023-04-24T13:57:58;4.75;;;4.75;;
62479;SDS011;48526;48.846;2.322;2023-04-24T14:00:23;3.00;;;3.00;;
62479;SDS011;48526;48.846;2.322;2023-04-24T14:02:49;6.25;;;3.75;;
62479;SDS011;48526;48.846;2.322;2023-04-24T14:05:15;3.75;;;3.00;;
62479;SDS011;48526;48.846;2.322;2023-04-24T14:07:41;4.25;;;4.00;;
62479;SDS011;48526;48.846;2.322;2023-04-24T14:10:06;4.50;;;3.00;;
62479;SDS011;48526;48.846;2.322;2023-04-24T14:12:33;2.50;;;2.00;;
62479;SDS011;48526;48.846;2.322;2023-04-24T14:14:59;3.00;;;3.00;;
62479;SDS011;48526;48.846;2.322;2023-04-24T14:17:26;4.00;;;2.50;;
62479;SDS011;48526;48.846;2.322;2023-04-24T14:19:51;3.00;;;3.00;;
62479;SDS011;48526;48.846;2.322;2023-04-24T14:22:17;3.75;;;3.00;;
62479;SDS011;48526;48.846;2.322;2023-04-24T14:24:42;4.00;;;3.00;;
62479;SDS011;48526;48.846;2.322;2023-04-24T14:27:08;5.25;;;4.00;;
62479;SDS011;48526;48.846;2.322;2023-04-24T14:29:33;3.00;;;3.00;;
62479;SDS011;48526;48.846;2.322;2023-04-24T14:31:58;2.75;;;2.75;;
62479;SDS011;48526;48.846;2.322;2023-04-24T14:34:24;3.00;;;3.00;;
62479;SDS011;48526;48.846;2.322;2023-04-24T14:36:49;1.75;;;1.75;;
62479;SDS011;48526;48.846;2.322;2023-04-24T14:39:15;4.00;;;4.00;;
62479;SDS011;48526;48.846;2.322;2023-04-24T14:41:40;3.00;;;2.00;;
62479;SDS011;48526;48.846;2.322;2023-04-24T14:44:06;3.75;;;2.25;;
62479;SDS011;48526;48.846;2.322;2023-04-24T14:46:31;2.50;;;2.50;;
62479;SDS011;48526;48.846;2.322;2023-04-24T14:48:57;4.50;;;4.50;;
62479;SDS011;48526;48.846;2.322;2023-04-24T14:51:22;4.00;;;4.00;;
62479;SDS011;48526;48.846;2.322;2023-04-24T14:53:48;3.00;;;3.00;;
62479;SDS011;48526;48.846;2.322;2023-04-24T14:56:15;3.75;;;2.00;;
62479;SDS011;48526;48.846;2.322;2023-04-24T14:58:40;4.00;;;4.00;;